sensor_id;sensor_type;location;lat;lon;timestamp;pressure;altitude;pressure_sealevel;temperature;humidity
47280;BME280;34064;44.942;0.008;2023-05-10T00:01:01;99211.50;;;16.89;63.26
47280;BME280;34064;44.942;0.008;2023-05-10T00:03:28;99207.13;;;16.88;63.13
47280;BME280;34064;44.942;0.008;2023-05-10T00:05:55;99210.81;;;16.87;62.97
47280;BME280;34064;44.942;0.008;2023-05-10T00:08:21;99201.66;;;16.79;63.26
47280;BME280;34064;44.942;0.008;2023-05-10T00:10:48;99204.66;;;16.76;62.98
47280;BME280;34064;44.942;0.008;2023-05-10T00:13:14;99203.25;;;16.72;63.07
47280;BME280;34064;44.942;0.008;2023-05-10T00:15:40;99206.38;;;16.67;63.27
47280;BME280;34064;44.942;0.008;2023-05-10T00:18:07;99203.69;;;16.67;63.33
47280;BME280;34064;44.942;0.008;2023-05-10T00:20:33;99205.84;;;16.64;63.16
47280;BME280;34064;44.942;0.008;2023-05-10T00:23:00;99199.75;;;16.62;63.26
47280;BME280;34064;44.942;0.008;2023-05-10T00:25:26;99200.75;;;16.61;63.05
47280;BME280;34064;44.942;0.008;2023-05-10T00:27:53;99200.75;;;16.61;62.83
47280;BME280;34064;44.942;0.008;2023-05-10T00:30:21;99212.06;;;16.55;62.95
47280;BME280;34064;44.942;0.008;2023-05-10T00:32:47;99214.06;;;16.52;63.00
47280;BME280;34064;44.942;0.008;2023-05-10T00:35:15;99210.66;;;16.50;63.08
47280;BME280;34064;44.942;0.008;2023-05-10T00:37:42;99210.66;;;16.50;62.65
47280;BME280;34064;44.942;0.008;2023-05-10T00:40:08;99212.94;;;16.45;62.70
47280;BME280;34064;44.942;0.008;2023-05-10T00:42:35;99211.53;;;16.41;62.73
47280;BME280;34064;44.942;0.008;2023-05-10T00:45:01;99213.50;;;16.39;62.63
47280;BME280;34064;44.942;0.008;2023-05-10T00:47:28;99217.78;;;16.32;62.62
47280;BME280;34064;44.942;0.008;2023-05-10T00:49:55;99215.84;;;16.24;62.97
47280;BME280;34064;44.942;0.008;2023-05-10T00:52:22;99216.81;;;16.23;62.87
47280;BME280;34064;44.942;0.008;2023-05-10T00:54:51;99220.59;;;16.20;62.83
47280;BME280;34064;44.942;0.008;2023-05-10T00:57:18;99221.75;;;16.18;62.80
47280;BME280;34064;44.942;0.008;2023-05-10T00:59:45;99218.34;;;16.16;62.69
47280;BME280;34064;44.942;0.008;2023-05-10T01:02:12;99215.00;;;16.14;62.81
47280;BME280;34064;44.942;0.008;2023-05-10T01:04:39;99212.44;;;16.12;62.51
47280;BME280;34064;44.942;0.008;2023-05-10T01:07:05;99213.03;;;16.06;62.41
47280;BME280;34064;44.942;0.008;2023-05-10T01:09:32;99204.44;;;16.02;62.45
47280;BME280;34064;44.942;0.008;2023-05-10T01:12:00;99213.88;;;15.97;62.71
47280;BME280;34064;44.942;0.008;2023-05-10T01:14:27;99218.53;;;15.95;62.57
47280;BME280;34064;44.942;0.008;2023-05-10T01:16:54;99209.09;;;15.90;62.70
47280;BME280;34064;44.942;0.008;2023-05-10T01:19:26;99219.81;;;15.90;62.52
47280;BME280;34064;44.942;0.008;2023-05-10T01:25:28;99212.22;;;15.86;62.55
47280;BME280;34064;44.942;0.008;2023-05-10T01:28:13;99212.31;;;15.84;62.35
47280;BME280;34064;44.942;0.008;2023-05-10T01:36:31;99212.16;;;15.76;62.36
47280;BME280;34064;44.942;0.008;2023-05-10T01:47:15;99215.69;;;15.57;62.57
47280;BME280;34064;44.942;0.008;2023-05-10T01:49:47;99221.88;;;15.57;62.31
47280;BME280;34064;44.942;0.008;2023-05-10T01:52:33;99226.53;;;15.55;62.24
47280;BME280;34064;44.942;0.008;2023-05-10T01:55:09;99223.44;;;15.50;62.33
47280;BME280;34064;44.942;0.008;2023-05-10T01:57:39;99225.38;;;15.48;62.41
47280;BME280;34064;44.942;0.008;2023-05-10T02:00:09;99230.03;;;15.46;62.31
47280;BME280;34064;44.942;0.008;2023-05-10T02:02:47;99224.69;;;15.46;62.30
47280;BME280;34064;44.942;0.008;2023-05-10T02:05:16;99230.31;;;15.43;62.14
47280;BME280;34064;44.942;0.008;2023-05-10T02:07:44;99223.81;;;15.36;62.21
47280;BME280;34064;44.942;0.008;2023-05-10T02:10:12;99235.38;;;15.36;62.09
47280;BME280;34064;44.942;0.008;2023-05-10T02:12:44;99235.78;;;15.32;62.17
47280;BME280;34064;44.942;0.008;2023-05-10T02:15:12;99231.00;;;15.25;62.30
47280;BME280;34064;44.942;0.008;2023-05-10T02:17:42;99235.63;;;15.23;62.22
47280;BME280;34064;44.942;0.008;2023-05-10T02:20:10;99230.53;;;15.20;62.29
47280;BME280;34064;44.942;0.008;2023-05-10T02:22:38;99231.69;;;15.18;62.19
47280;BME280;34064;44.942;0.008;2023-05-10T02:25:07;99230.97;;;15.16;62.25
47280;BME280;34064;44.942;0.008;2023-05-10T02:27:34;99228.69;;;15.11;62.17
47280;BME280;34064;44.942;0.008;2023-05-10T02:30:01;99229.66;;;15.10;62.19
47280;BME280;34064;44.942;0.008;2023-05-10T02:32:28;99231.50;;;15.09;62.27
47280;BME280;34064;44.942;0.008;2023-05-10T02:34:56;99225.59;;;15.06;62.32
47280;BME280;34064;44.942;0.008;2023-05-10T02:37:24;99224.72;;;15.05;62.20
47280;BME280;34064;44.942;0.008;2023-05-10T02:39:53;99224.16;;;15.02;62.18
47280;BME280;34064;44.942;0.008;2023-05-10T02:42:25;99221.63;;;15.00;62.38
47280;BME280;34064;44.942;0.008;2023-05-10T02:44:54;99230.63;;;14.99;62.36
47280;BME280;34064;44.942;0.008;2023-05-10T02:47:22;99228.78;;;15.00;62.32
47280;BME280;34064;44.942;0.008;2023-05-10T02:49:49;99228.38;;;14.94;62.38
47280;BME280;34064;44.942;0.008;2023-05-10T02:52:19;99233.81;;;14.93;62.23
47280;BME280;34064;44.942;0.008;2023-05-10T02:54:50;99229.59;;;14.90;62.23
47280;BME280;34064;44.942;0.008;2023-05-10T02:57:22;99231.56;;;14.88;62.21
47280;BME280;34064;44.942;0.008;2023-05-10T02:59:51;99227.34;;;14.86;62.24
47280;BME280;34064;44.942;0.008;2023-05-10T03:02:17;99235.50;;;14.84;62.06
47280;BME280;34064;44.942;0.008;2023-05-10T03:04:43;99235.50;;;14.84;62.10
47280;BME280;34064;44.942;0.008;2023-05-10T03:07:10;99235.75;;;14.81;62.00
47280;BME280;34064;44.942;0.008;2023-05-10T03:09:36;99241.41;;;14.78;62.12
47280;BME280;34064;44.942;0.008;2023-05-10T03:12:46;99237.03;;;14.77;62.20
47280;BME280;34064;44.942;0.008;2023-05-10T03:15:18;99244.59;;;14.72;62.16
47280;BME280;34064;44.942;0.008;2023-05-10T03:17:55;99250.22;;;14.69;62.06
47280;BME280;34064;44.942;0.008;2023-05-10T03:20:29;99250.44;;;14.65;62.16
47280;BME280;34064;44.942;0.008;2023-05-10T03:25:40;99251.00;;;14.59;62.10
47280;BME280;34064;44.942;0.008;2023-05-10T03:28:07;99248.56;;;14.56;62.24
47280;BME280;34064;44.942;0.008;2023-05-10T03:30:35;99246.03;;;14.55;62.14
47280;BME280;34064;44.942;0.008;2023-05-10T03:33:06;99242.75;;;14.51;62.35
47280;BME280;34064;44.942;0.008;2023-05-10T03:35:32;99247.41;;;14.49;62.28
47280;BME280;34064;44.942;0.008;2023-05-10T03:37:59;99244.75;;;14.49;62.33
47280;BME280;34064;44.942;0.008;2023-05-10T03:40:26;99234.28;;;14.46;62.56
47280;BME280;34064;44.942;0.008;2023-05-10T03:42:55;99237.38;;;14.41;62.75
47280;BME280;34064;44.942;0.008;2023-05-10T03:45:21;99240.03;;;14.41;63.09
47280;BME280;34064;44.942;0.008;2023-05-10T03:47:48;99239.91;;;14.43;62.71
47280;BME280;34064;44.942;0.008;2023-05-10T03:50:14;99229.09;;;14.44;62.64
47280;BME280;34064;44.942;0.008;2023-05-10T03:52:41;99225.31;;;14.47;62.58
47280;BME280;34064;44.942;0.008;2023-05-10T03:55:07;99234.28;;;14.46;62.52
47280;BME280;34064;44.942;0.008;2023-05-10T03:57:34;99223.59;;;14.46;62.35
47280;BME280;34064;44.942;0.008;2023-05-10T04:00:00;99226.41;;;14.44;62.41
47280;BME280;34064;44.942;0.008;2023-05-10T04:02:27;99225.69;;;14.42;62.43
47280;BME280;34064;44.942;0.008;2023-05-10T04:04:53;99229.75;;;14.37;62.85
47280;BME280;34064;44.942;0.008;2023-05-10T04:07:19;99221.97;;;14.33;62.90
47280;BME280;34064;44.942;0.008;2023-05-10T04:09:46;99223.94;;;14.31;62.86
47280;BME280;34064;44.942;0.008;2023-05-10T04:12:12;99222.25;;;14.30;62.55
47280;BME280;34064;44.942;0.008;2023-05-10T04:14:39;99230.78;;;14.24;62.68
47280;BME280;34064;44.942;0.008;2023-05-10T04:17:05;99229.22;;;14.22;62.66
47280;BME280;34064;44.942;0.008;2023-05-10T04:19:32;99226.41;;;14.23;62.56
47280;BME280;34064;44.942;0.008;2023-05-10T04:21:59;99234.44;;;14.23;62.49
47280;BME280;34064;44.942;0.008;2023-05-10T04:24:25;99230.19;;;14.20;62.49
47280;BME280;34064;44.942;0.008;2023-05-10T04:26:52;99227.66;;;14.19;62.59
47280;BME280;34064;44.942;0.008;2023-05-10T04:29:19;99223.44;;;14.16;62.53
47280;BME280;34064;44.942;0.008;2023-05-10T04:31:46;99220.03;;;14.14;62.47
47280;BME280;34064;44.942;0.008;2023-05-10T04:34:12;99225.63;;;14.11;62.47
47280;BME280;34064;44.942;0.008;2023-05-10T04:36:39;99226.03;;;14.07;62.65
47280;BME280;34064;44.942;0.008;2023-05-10T04:39:05;99237.09;;;14.02;62.63
47280;BME280;34064;44.942;0.008;2023-05-10T04:41:32;99232.72;;;14.01;62.85
47280;BME280;34064;44.942;0.008;2023-05-10T04:43:58;99226.66;;;13.99;62.67
47280;BME280;34064;44.942;0.008;2023-05-10T04:46:24;99238.47;;;13.96;62.78
47280;BME280;34064;44.942;0.008;2023-05-10T04:48:51;99231.16;;;13.98;62.64
47280;BME280;34064;44.942;0.008;2023-05-10T04:51:17;99238.22;;;13.99;62.55
47280;BME280;34064;44.942;0.008;2023-05-10T04:53:43;99233.13;;;13.96;62.69
47280;BME280;34064;44.942;0.008;2023-05-10T04:56:10;99234.81;;;13.97;62.60
47280;BME280;34064;44.942;0.008;2023-05-10T04:58:36;99245.50;;;13.97;62.60
47280;BME280;34064;44.942;0.008;2023-05-10T05:01:06;99240.16;;;13.97;62.60
47280;BME280;34064;44.942;0.008;2023-05-10T05:03:34;99243.06;;;13.94;62.79
47280;BME280;34064;44.942;0.008;2023-05-10T05:06:00;99243.81;;;13.96;62.63
47280;BME280;34064;44.942;0.008;2023-05-10T05:08:27;99244.78;;;13.95;62.58
47280;BME280;34064;44.942;0.008;2023-05-10T05:10:53;99249.41;;;13.93;62.85
47280;BME280;34064;44.942;0.008;2023-05-10T05:13:20;99256.44;;;13.94;62.50
47280;BME280;34064;44.942;0.008;2023-05-10T05:15:52;99257.16;;;13.96;62.77
47280;BME280;34064;44.942;0.008;2023-05-10T05:18:21;99259.59;;;13.99;62.69
47280;BME280;34064;44.942;0.008;2023-05-10T05:20:47;99256.66;;;14.02;62.61
47280;BME280;34064;44.942;0.008;2023-05-10T05:23:13;99258.31;;;14.03;62.87
47280;BME280;34064;44.942;0.008;2023-05-10T05:25:40;99251.78;;;14.08;62.74
47280;BME280;34064;44.942;0.008;2023-05-10T05:28:06;99254.19;;;14.11;63.18
47280;BME280;34064;44.942;0.008;2023-05-10T05:30:32;99248.47;;;14.15;62.94
47280;BME280;34064;44.942;0.008;2023-05-10T05:32:59;99250.84;;;14.18;63.09
47280;BME280;34064;44.942;0.008;2023-05-10T05:35:25;99258.38;;;14.25;62.77
47280;BME280;34064;44.942;0.008;2023-05-10T05:37:52;99253.47;;;14.30;62.92
47280;BME280;34064;44.942;0.008;2023-05-10T05:40:19;99252.69;;;14.39;62.94
47280;BME280;34064;44.942;0.008;2023-05-10T05:42:46;99256.22;;;14.40;63.44
47280;BME280;34064;44.942;0.008;2023-05-10T05:45:13;99256.66;;;14.45;63.24
47280;BME280;34064;44.942;0.008;2023-05-10T05:47:40;99263.16;;;14.52;62.88
47280;BME280;34064;44.942;0.008;2023-05-10T05:50:07;99262.19;;;14.53;63.27
47280;BME280;34064;44.942;0.008;2023-05-10T05:52:34;99250.25;;;14.57;63.51
47280;BME280;34064;44.942;0.008;2023-05-10T05:55:00;99266.03;;;14.60;63.54
47280;BME280;34064;44.942;0.008;2023-05-10T05:57:27;99256.63;;;14.66;63.38
47280;BME280;34064;44.942;0.008;2023-05-10T05:59:53;99258.94;;;14.71;63.48
47280;BME280;34064;44.942;0.008;2023-05-10T06:02:19;99264.59;;;14.77;63.83
47280;BME280;34064;44.942;0.008;2023-05-10T06:04:46;99264.78;;;14.86;63.62
47280;BME280;34064;44.942;0.008;2023-05-10T06:07:12;99254.81;;;14.97;63.56
47280;BME280;34064;44.942;0.008;2023-05-10T06:09:38;99255.72;;;15.08;63.56
47280;BME280;34064;44.942;0.008;2023-05-10T06:12:05;99249.53;;;15.17;63.20
47280;BME280;34064;44.942;0.008;2023-05-10T06:14:31;99256.06;;;15.24;63.28
47280;BME280;34064;44.942;0.008;2023-05-10T06:16:58;99243.69;;;15.33;63.28
47280;BME280;34064;44.942;0.008;2023-05-10T06:19:25;99240.88;;;15.44;63.03
47280;BME280;34064;44.942;0.008;2023-05-10T06:21:52;99246.81;;;15.48;63.16
47280;BME280;34064;44.942;0.008;2023-05-10T06:24:19;99244.84;;;15.50;63.32
47280;BME280;34064;44.942;0.008;2023-05-10T06:26:45;99246.13;;;15.56;62.88
47280;BME280;34064;44.942;0.008;2023-05-10T06:29:11;99236.97;;;15.58;62.93
47280;BME280;34064;44.942;0.008;2023-05-10T06:31:38;99240.75;;;15.66;62.72
47280;BME280;34064;44.942;0.008;2023-05-10T06:34:04;99232.19;;;15.72;62.73
47280;BME280;34064;44.942;0.008;2023-05-10T06:36:30;99238.66;;;15.79;62.54
47280;BME280;34064;44.942;0.008;2023-05-10T06:38:57;99241.53;;;15.87;62.65
47280;BME280;34064;44.942;0.008;2023-05-10T06:41:23;99242.22;;;15.99;62.68
47280;BME280;34064;44.942;0.008;2023-05-10T06:43:49;99236.31;;;16.05;62.58
47280;BME280;34064;44.942;0.008;2023-05-10T06:46:16;99237.28;;;16.04;62.80
47280;BME280;34064;44.942;0.008;2023-05-10T06:48:42;99234.47;;;16.06;63.18
47280;BME280;34064;44.942;0.008;2023-05-10T06:51:09;99231.75;;;16.16;62.89
47280;BME280;34064;44.942;0.008;2023-05-10T06:53:35;99223.16;;;16.22;62.91
47280;BME280;34064;44.942;0.008;2023-05-10T06:56:01;99222.56;;;16.28;62.69
47280;BME280;34064;44.942;0.008;2023-05-10T06:58:29;99222.84;;;16.35;62.40
47280;BME280;34064;44.942;0.008;2023-05-10T07:01:01;99222.41;;;16.40;62.57
47280;BME280;34064;44.942;0.008;2023-05-10T07:03:27;99222.25;;;16.51;62.18
47280;BME280;34064;44.942;0.008;2023-05-10T07:05:53;99221.09;;;16.53;62.40
47280;BME280;34064;44.942;0.008;2023-05-10T07:08:21;99216.00;;;16.60;62.26
47280;BME280;34064;44.942;0.008;2023-05-10T07:10:47;99199.03;;;16.69;62.45
47280;BME280;34064;44.942;0.008;2023-05-10T07:13:13;99207.34;;;16.76;62.05
47280;BME280;34064;44.942;0.008;2023-05-10T07:15:40;99203.91;;;16.84;62.18
47280;BME280;34064;44.942;0.008;2023-05-10T07:18:06;99199.50;;;16.93;61.97
47280;BME280;34064;44.942;0.008;2023-05-10T07:20:32;99191.28;;;17.04;61.61
47280;BME280;34064;44.942;0.008;2023-05-10T07:22:59;99203.09;;;17.11;61.62
47280;BME280;34064;44.942;0.008;2023-05-10T07:25:25;99198.13;;;17.17;61.45
47280;BME280;34064;44.942;0.008;2023-05-10T07:27:52;99191.72;;;17.27;60.75
47280;BME280;34064;44.942;0.008;2023-05-10T07:30:18;99188.25;;;17.35;60.91
47280;BME280;34064;44.942;0.008;2023-05-10T07:32:45;99193.31;;;17.38;61.35
47280;BME280;34064;44.942;0.008;2023-05-10T07:35:11;99190.88;;;17.45;61.44
47280;BME280;34064;44.942;0.008;2023-05-10T07:37:38;99187.13;;;17.56;61.36
47280;BME280;34064;44.942;0.008;2023-05-10T07:40:04;99194.88;;;17.59;61.30
47280;BME280;34064;44.942;0.008;2023-05-10T07:42:31;99188.81;;;17.57;60.94
47280;BME280;34064;44.942;0.008;2023-05-10T07:44:57;99189.81;;;17.56;60.73
47280;BME280;34064;44.942;0.008;2023-05-10T07:47:24;99193.19;;;17.58;60.78
47280;BME280;34064;44.942;0.008;2023-05-10T07:49:50;99190.56;;;17.66;60.15
47280;BME280;34064;44.942;0.008;2023-05-10T07:52:17;99184.03;;;17.69;59.58
47280;BME280;34064;44.942;0.008;2023-05-10T07:54:43;99178.91;;;17.75;59.99
47280;BME280;34064;44.942;0.008;2023-05-10T07:57:10;99182.59;;;17.74;59.82
47280;BME280;34064;44.942;0.008;2023-05-10T07:59:37;99187.44;;;17.71;59.86
47280;BME280;34064;44.942;0.008;2023-05-10T08:02:03;99181.22;;;17.70;59.93
47280;BME280;34064;44.942;0.008;2023-05-10T08:04:29;99190.28;;;17.69;59.84
47280;BME280;34064;44.942;0.008;2023-05-10T08:06:56;99186.59;;;17.70;59.94
47280;BME280;34064;44.942;0.008;2023-05-10T08:09:22;99194.72;;;17.78;58.93
47280;BME280;34064;44.942;0.008;2023-05-10T08:11:50;99188.47;;;17.78;58.97
47280;BME280;34064;44.942;0.008;2023-05-10T08:14:17;99185.03;;;17.86;59.66
47280;BME280;34064;44.942;0.008;2023-05-10T08:16:43;99177.50;;;18.07;57.83
47280;BME280;34064;44.942;0.008;2023-05-10T08:19:09;99167.03;;;18.22;57.56
47280;BME280;34064;44.942;0.008;2023-05-10T08:21:36;99153.22;;;18.44;56.90
47280;BME280;34064;44.942;0.008;2023-05-10T08:24:02;99166.44;;;18.37;56.82
47280;BME280;34064;44.942;0.008;2023-05-10T08:26:29;99161.47;;;18.50;55.61
47280;BME280;34064;44.942;0.008;2023-05-10T08:28:55;99154.63;;;18.56;55.83
47280;BME280;34064;44.942;0.008;2023-05-10T08:31:21;99153.66;;;18.65;55.68
47280;BME280;34064;44.942;0.008;2023-05-10T08:33:48;99139.25;;;18.83;55.53
47280;BME280;34064;44.942;0.008;2023-05-10T08:36:14;99131.94;;;19.01;55.62
47280;BME280;34064;44.942;0.008;2023-05-10T08:38:45;99125.09;;;19.24;55.40
47280;BME280;34064;44.942;0.008;2023-05-10T08:41:11;99113.31;;;19.33;54.55
47280;BME280;34064;44.942;0.008;2023-05-10T08:43:38;99113.50;;;19.48;54.72
47280;BME280;34064;44.942;0.008;2023-05-10T08:46:08;99104.22;;;19.67;53.17
47280;BME280;34064;44.942;0.008;2023-05-10T08:48:35;99107.41;;;19.79;53.44
47280;BME280;34064;44.942;0.008;2023-05-10T08:51:03;99113.16;;;19.76;52.67
47280;BME280;34064;44.942;0.008;2023-05-10T08:53:32;99116.69;;;19.68;52.11
47280;BME280;34064;44.942;0.008;2023-05-10T08:55:59;99120.56;;;19.41;52.24
47280;BME280;34064;44.942;0.008;2023-05-10T08:58:26;99135.88;;;19.24;53.05
47280;BME280;34064;44.942;0.008;2023-05-10T09:00:52;99137.50;;;19.08;53.55
47280;BME280;34064;44.942;0.008;2023-05-10T09:03:19;99133.97;;;19.08;53.78
47280;BME280;34064;44.942;0.008;2023-05-10T09:05:45;99118.38;;;19.36;52.39
47280;BME280;34064;44.942;0.008;2023-05-10T09:08:13;99111.50;;;19.58;51.40
47280;BME280;34064;44.942;0.008;2023-05-10T09:10:40;99093.63;;;19.74;51.04
47280;BME280;34064;44.942;0.008;2023-05-10T09:13:10;99100.69;;;19.75;51.00
47280;BME280;34064;44.942;0.008;2023-05-10T09:15:38;99102.56;;;19.83;50.74
47280;BME280;34064;44.942;0.008;2023-05-10T09:18:04;99083.44;;;20.17;49.96
47280;BME280;34064;44.942;0.008;2023-05-10T09:20:31;99083.09;;;20.29;49.50
47280;BME280;34064;44.942;0.008;2023-05-10T09:22:57;99091.53;;;20.25;49.31
47280;BME280;34064;44.942;0.008;2023-05-10T09:25:24;99086.50;;;20.14;49.41
47280;BME280;34064;44.942;0.008;2023-05-10T09:27:50;99112.69;;;19.89;50.37
47280;BME280;34064;44.942;0.008;2023-05-10T09:30:28;99130.16;;;19.60;51.39
47280;BME280;34064;44.942;0.008;2023-05-10T09:32:56;99146.16;;;19.37;52.27
47280;BME280;34064;44.942;0.008;2023-05-10T09:35:27;99149.81;;;19.19;53.33
47280;BME280;34064;44.942;0.008;2023-05-10T09:37:55;99159.88;;;19.09;54.24
47280;BME280;34064;44.942;0.008;2023-05-10T09:40:23;99159.88;;;19.00;54.69
47280;BME280;34064;44.942;0.008;2023-05-10T09:42:58;99163.19;;;18.94;55.69
47280;BME280;34064;44.942;0.008;2023-05-10T09:45:27;99161.06;;;19.06;55.61
47280;BME280;34064;44.942;0.008;2023-05-10T09:47:54;99139.41;;;19.32;55.62
47280;BME280;34064;44.942;0.008;2023-05-10T09:50:21;99127.66;;;19.67;56.37
47280;BME280;34064;44.942;0.008;2023-05-10T09:52:50;99108.13;;;19.98;55.14
47280;BME280;34064;44.942;0.008;2023-05-10T09:55:22;99104.34;;;20.23;54.33
47280;BME280;34064;44.942;0.008;2023-05-10T09:57:58;99091.47;;;20.42;53.46
47280;BME280;34064;44.942;0.008;2023-05-10T10:00:25;99080.97;;;20.55;51.94
47280;BME280;34064;44.942;0.008;2023-05-10T10:02:57;99076.56;;;20.63;51.13
47280;BME280;34064;44.942;0.008;2023-05-10T10:05:34;99062.34;;;20.77;50.84
47280;BME280;34064;44.942;0.008;2023-05-10T10:08:04;99062.72;;;20.97;50.27
47280;BME280;34064;44.942;0.008;2023-05-10T10:10:32;99060.06;;;21.12;49.75
47280;BME280;34064;44.942;0.008;2023-05-10T10:12:59;99065.38;;;21.06;49.17
47280;BME280;34064;44.942;0.008;2023-05-10T10:15:26;99078.53;;;20.77;49.38
47280;BME280;34064;44.942;0.008;2023-05-10T10:17:53;99098.56;;;20.43;50.79
47280;BME280;34064;44.942;0.008;2023-05-10T10:20:21;99123.38;;;20.22;51.02
47280;BME280;34064;44.942;0.008;2023-05-10T10:22:48;99145.66;;;19.74;52.90
47280;BME280;34064;44.942;0.008;2023-05-10T10:25:16;99165.34;;;19.42;54.59
47280;BME280;34064;44.942;0.008;2023-05-10T10:30:25;99163.91;;;19.05;55.91
47280;BME280;34064;44.942;0.008;2023-05-10T10:35:32;99165.94;;;19.02;55.96
47280;BME280;34064;44.942;0.008;2023-05-10T10:38:01;99156.03;;;19.20;56.25
47280;BME280;34064;44.942;0.008;2023-05-10T10:40:34;99142.78;;;19.35;56.14
47280;BME280;34064;44.942;0.008;2023-05-10T10:43:28;99127.81;;;19.73;56.11
47280;BME280;34064;44.942;0.008;2023-05-10T10:46:14;99104.38;;;20.15;55.55
47280;BME280;34064;44.942;0.008;2023-05-10T10:48:43;99086.06;;;20.50;55.57
47280;BME280;34064;44.942;0.008;2023-05-10T10:51:14;99069.41;;;20.78;54.70
47280;BME280;34064;44.942;0.008;2023-05-10T10:56:12;99053.25;;;21.25;52.39
47280;BME280;34064;44.942;0.008;2023-05-10T10:58:40;99058.03;;;21.14;52.51
47280;BME280;34064;44.942;0.008;2023-05-10T11:01:12;99077.59;;;20.93;53.42
47280;BME280;34064;44.942;0.008;2023-05-10T11:03:39;99099.47;;;20.67;54.13
47280;BME280;34064;44.942;0.008;2023-05-10T11:06:06;99101.78;;;20.38;54.83
47280;BME280;34064;44.942;0.008;2023-05-10T11:08:34;99106.06;;;20.16;54.99
47280;BME280;34064;44.942;0.008;2023-05-10T11:11:07;99099.84;;;20.07;54.99
47280;BME280;34064;44.942;0.008;2023-05-10T11:13:45;99096.78;;;20.19;54.95
47280;BME280;34064;44.942;0.008;2023-05-10T11:16:18;99078.00;;;20.42;55.12
47280;BME280;34064;44.942;0.008;2023-05-10T11:19:04;99058.81;;;20.68;54.72
47280;BME280;34064;44.942;0.008;2023-05-10T11:21:32;99042.63;;;21.00;53.84
47280;BME280;34064;44.942;0.008;2023-05-10T11:24:00;99032.31;;;21.27;54.06
47280;BME280;34064;44.942;0.008;2023-05-10T11:26:34;99028.63;;;21.43;53.71
47280;BME280;34064;44.942;0.008;2023-05-10T11:29:01;99038.00;;;21.32;53.29
47280;BME280;34064;44.942;0.008;2023-05-10T11:31:29;99033.91;;;21.36;53.38
47280;BME280;34064;44.942;0.008;2023-05-10T11:33:57;99015.88;;;21.51;53.78
47280;BME280;34064;44.942;0.008;2023-05-10T11:36:28;99016.22;;;21.72;53.31
47280;BME280;34064;44.942;0.008;2023-05-10T11:38:56;98998.81;;;21.89;53.05
47280;BME280;34064;44.942;0.008;2023-05-10T11:41:23;99000.84;;;22.02;49.78
47280;BME280;34064;44.942;0.008;2023-05-10T11:43:52;98992.88;;;22.16;50.10
47280;BME280;34064;44.942;0.008;2023-05-10T11:46:20;98987.88;;;22.27;48.79
47280;BME280;34064;44.942;0.008;2023-05-10T11:48:51;98991.28;;;22.36;48.55
47280;BME280;34064;44.942;0.008;2023-05-10T11:51:25;98978.53;;;22.30;47.70
47280;BME280;34064;44.942;0.008;2023-05-10T11:53:55;98997.28;;;22.17;48.74
47280;BME280;34064;44.942;0.008;2023-05-10T11:56:22;98991.03;;;22.16;47.78
47280;BME280;34064;44.942;0.008;2023-05-10T11:58:56;98979.53;;;22.29;47.42
47280;BME280;34064;44.942;0.008;2023-05-10T12:01:24;98972.16;;;22.38;47.79
47280;BME280;34064;44.942;0.008;2023-05-10T12:03:52;98980.78;;;22.41;46.32
47280;BME280;34064;44.942;0.008;2023-05-10T12:06:20;98962.38;;;22.52;44.56
47280;BME280;34064;44.942;0.008;2023-05-10T12:08:48;98969.84;;;22.50;45.12
47280;BME280;34064;44.942;0.008;2023-05-10T12:11:18;98977.28;;;22.48;46.07
47280;BME280;34064;44.942;0.008;2023-05-10T12:13:45;98974.59;;;22.48;45.23
47280;BME280;34064;44.942;0.008;2023-05-10T12:16:23;98977.75;;;22.36;46.17
47280;BME280;34064;44.942;0.008;2023-05-10T12:18:55;98979.44;;;22.52;46.99
47280;BME280;34064;44.942;0.008;2023-05-10T12:21:22;98955.91;;;22.74;46.44
47280;BME280;34064;44.942;0.008;2023-05-10T12:23:52;98948.75;;;22.88;44.26
47280;BME280;34064;44.942;0.008;2023-05-10T12:26:22;98961.06;;;22.91;44.39
47280;BME280;34064;44.942;0.008;2023-05-10T12:28:49;98949.53;;;23.04;44.22
47280;BME280;34064;44.942;0.008;2023-05-10T12:31:15;98945.47;;;23.15;42.78
47280;BME280;34064;44.942;0.008;2023-05-10T12:33:43;98925.03;;;23.41;43.16
47280;BME280;34064;44.942;0.008;2023-05-10T12:36:11;98933.66;;;23.51;42.78
47280;BME280;34064;44.942;0.008;2023-05-10T12:38:39;98948.75;;;23.32;42.74
47280;BME280;34064;44.942;0.008;2023-05-10T12:41:16;98964.88;;;22.97;43.06
47280;BME280;34064;44.942;0.008;2023-05-10T12:43:43;98975.78;;;22.60;44.22
47280;BME280;34064;44.942;0.008;2023-05-10T12:46:16;98997.09;;;22.33;44.12
47280;BME280;34064;44.942;0.008;2023-05-10T12:48:43;99009.97;;;22.16;44.21
47280;BME280;34064;44.942;0.008;2023-05-10T12:51:10;99006.06;;;21.89;44.11
47280;BME280;34064;44.942;0.008;2023-05-10T12:53:38;99030.66;;;21.64;44.58
47280;BME280;34064;44.942;0.008;2023-05-10T12:56:05;99031.97;;;21.45;45.74
47280;BME280;34064;44.942;0.008;2023-05-10T12:58:32;99038.28;;;21.37;45.75
47280;BME280;34064;44.942;0.008;2023-05-10T13:00:59;99024.28;;;21.57;45.79
47280;BME280;34064;44.942;0.008;2023-05-10T13:03:26;98992.94;;;22.01;46.03
47280;BME280;34064;44.942;0.008;2023-05-10T13:05:52;98975.63;;;22.47;46.21
47280;BME280;34064;44.942;0.008;2023-05-10T13:08:18;98964.25;;;22.73;44.97
47280;BME280;34064;44.942;0.008;2023-05-10T13:10:45;98944.56;;;23.08;45.24
47280;BME280;34064;44.942;0.008;2023-05-10T13:13:11;98929.34;;;23.28;44.20
47280;BME280;34064;44.942;0.008;2023-05-10T13:15:38;98921.06;;;23.36;44.03
47280;BME280;34064;44.942;0.008;2023-05-10T13:18:04;98919.16;;;23.65;43.91
47280;BME280;34064;44.942;0.008;2023-05-10T13:20:30;98913.25;;;23.55;43.04
47280;BME280;34064;44.942;0.008;2023-05-10T13:22:57;98937.53;;;23.13;44.25
47280;BME280;34064;44.942;0.008;2023-05-10T13:25:23;98951.97;;;22.99;44.69
47280;BME280;34064;44.942;0.008;2023-05-10T13:27:50;98955.78;;;23.04;45.11
47280;BME280;34064;44.942;0.008;2023-05-10T13:30:16;98932.88;;;23.29;45.22
47280;BME280;34064;44.942;0.008;2023-05-10T13:32:42;98933.31;;;23.32;44.54